aviador You're here:

KLEW Decoded Metar

AUBURN/LEWISTON in ME, USA
Report Time2017-07-21 03:56:00
UTC Time2017-07-21 04:31:01
Flight Rules vfr VFR
WindCalm
Visibility9999 m
Phenomena:N/A
Clouds:N/A
Expected CloudBase > 400 ft AGL from Temp-Dew spread
CeilingNone
Temp21°C (ISA +7)
Dew Point20°C (94% RH)
QNH1009 hPa
Density Alt1,503 ft
Elevation289 ft
Report Wrong Elevation
Raw Report
METAR KLEW 210356Z AUTO 00000KT 10SM CLR 21/20 A2981 RMK AO2 SLP106
T02060200 403000172=

Extra information for KLEW:More info

Metar Taf Metar & Taf Last 4 Metars F.Rules Stats Wind Profile Meteogram Temp Stats Airport Information Weather charts Add Link Nearby VenuesMetar ALERT Operation Metar Decoded Social comments

AIRNAV info for KLEW